sensor_id;sensor_type;location;lat;lon;timestamp;pressure;altitude;pressure_sealevel;temperature;humidity
64683;BME280;51107;47.652;19.016;2023-11-21T00:00:59;99393.31;;;6.82;100.00
64683;BME280;51107;47.652;19.016;2023-11-21T00:03:30;99393.44;;;6.80;100.00
64683;BME280;51107;47.652;19.016;2023-11-21T00:05:58;99395.91;;;6.82;100.00
64683;BME280;51107;47.652;19.016;2023-11-21T00:08:28;99405.84;;;6.76;100.00
64683;BME280;51107;47.652;19.016;2023-11-21T00:10:56;99399.75;;;6.97;100.00
64683;BME280;51107;47.652;19.016;2023-11-21T00:13:25;99393.44;;;6.90;100.00
64683;BME280;51107;47.652;19.016;2023-11-21T00:15:53;99409.69;;;6.92;100.00
64683;BME280;51107;47.652;19.016;2023-11-21T00:18:21;99405.72;;;6.88;100.00
64683;BME280;51107;47.652;19.016;2023-11-21T00:20:49;99400.41;;;6.79;100.00
64683;BME280;51107;47.652;19.016;2023-11-21T00:23:17;99402.84;;;6.81;100.00
64683;BME280;51107;47.652;19.016;2023-11-21T00:25:46;99406.09;;;6.83;100.00
64683;BME280;51107;47.652;19.016;2023-11-21T00:28:14;99402.16;;;6.79;100.00
64683;BME280;51107;47.652;19.016;2023-11-21T00:30:43;99405.16;;;6.94;100.00
64683;BME280;51107;47.652;19.016;2023-11-21T00:33:11;99406.81;;;7.14;99.80
64683;BME280;51107;47.652;19.016;2023-11-21T00:35:39;99415.38;;;7.35;98.20
64683;BME280;51107;47.652;19.016;2023-11-21T00:38:07;99409.84;;;7.67;95.42
64683;BME280;51107;47.652;19.016;2023-11-21T00:40:36;99409.88;;;7.57;96.40
64683;BME280;51107;47.652;19.016;2023-11-21T00:43:05;99411.19;;;7.71;95.45
64683;BME280;51107;47.652;19.016;2023-11-21T00:45:33;99413.28;;;7.68;94.83
64683;BME280;51107;47.652;19.016;2023-11-21T00:48:03;99416.44;;;7.52;96.00
64683;BME280;51107;47.652;19.016;2023-11-21T00:50:33;99414.00;;;7.40;96.18
64683;BME280;51107;47.652;19.016;2023-11-21T00:53:01;99406.09;;;7.42;95.95
64683;BME280;51107;47.652;19.016;2023-11-21T00:55:30;99401.47;;;7.45;96.00
64683;BME280;51107;47.652;19.016;2023-11-21T00:57:58;99389.47;;;7.35;95.84
64683;BME280;51107;47.652;19.016;2023-11-21T01:00:27;99394.09;;;7.31;96.06
64683;BME280;51107;47.652;19.016;2023-11-21T01:02:56;99407.47;;;7.26;96.51
64683;BME280;51107;47.652;19.016;2023-11-21T01:05:25;99406.41;;;7.19;97.03
64683;BME280;51107;47.652;19.016;2023-11-21T01:07:53;99398.22;;;7.24;96.83
64683;BME280;51107;47.652;19.016;2023-11-21T01:10:21;99392.59;;;7.38;95.98
64683;BME280;51107;47.652;19.016;2023-11-21T01:12:49;99397.38;;;7.33;96.17
64683;BME280;51107;47.652;19.016;2023-11-21T01:15:17;99396.84;;;7.29;96.49
64683;BME280;51107;47.652;19.016;2023-11-21T01:17:47;99385.13;;;7.25;96.77
64683;BME280;51107;47.652;19.016;2023-11-21T01:20:15;99395.34;;;7.27;96.74
64683;BME280;51107;47.652;19.016;2023-11-21T01:22:43;99392.22;;;7.33;96.39
64683;BME280;51107;47.652;19.016;2023-11-21T01:25:12;99387.69;;;7.35;95.48
64683;BME280;51107;47.652;19.016;2023-11-21T01:27:43;99390.84;;;7.29;95.97
64683;BME280;51107;47.652;19.016;2023-11-21T01:30:11;99391.66;;;7.20;96.30
64683;BME280;51107;47.652;19.016;2023-11-21T01:32:39;99383.63;;;7.13;96.53
64683;BME280;51107;47.652;19.016;2023-11-21T01:35:09;99388.50;;;7.26;95.67
64683;BME280;51107;47.652;19.016;2023-11-21T01:37:38;99384.56;;;7.31;95.51
64683;BME280;51107;47.652;19.016;2023-11-21T01:40:08;99373.50;;;7.29;95.31
64683;BME280;51107;47.652;19.016;2023-11-21T01:42:39;99379.94;;;7.25;96.08
64683;BME280;51107;47.652;19.016;2023-11-21T01:45:08;99381.16;;;7.21;95.84
64683;BME280;51107;47.652;19.016;2023-11-21T01:47:37;99383.47;;;7.24;95.51
64683;BME280;51107;47.652;19.016;2023-11-21T01:50:10;99378.69;;;7.29;94.87
64683;BME280;51107;47.652;19.016;2023-11-21T01:52:40;99383.22;;;7.27;95.14
64683;BME280;51107;47.652;19.016;2023-11-21T01:55:09;99392.47;;;7.30;94.76
64683;BME280;51107;47.652;19.016;2023-11-21T01:57:37;99393.16;;;7.22;95.51
64683;BME280;51107;47.652;19.016;2023-11-21T02:00:06;99389.09;;;7.20;95.78
64683;BME280;51107;47.652;19.016;2023-11-21T02:02:46;99373.50;;;7.29;94.90
64683;BME280;51107;47.652;19.016;2023-11-21T02:05:16;99374.31;;;7.30;94.89
64683;BME280;51107;47.652;19.016;2023-11-21T02:07:47;99378.53;;;7.41;94.39
64683;BME280;51107;47.652;19.016;2023-11-21T02:10:16;99362.88;;;7.32;94.59
64683;BME280;51107;47.652;19.016;2023-11-21T02:12:46;99363.97;;;7.30;94.89
64683;BME280;51107;47.652;19.016;2023-11-21T02:15:14;99362.19;;;7.40;94.04
64683;BME280;51107;47.652;19.016;2023-11-21T02:17:50;99358.91;;;7.38;94.38
64683;BME280;51107;47.652;19.016;2023-11-21T02:20:22;99353.59;;;7.40;93.47
64683;BME280;51107;47.652;19.016;2023-11-21T02:22:57;99345.94;;;7.38;93.90
64683;BME280;51107;47.652;19.016;2023-11-21T02:25:30;99347.59;;;7.29;95.51
64683;BME280;51107;47.652;19.016;2023-11-21T02:28:00;99349.94;;;7.23;95.46
64683;BME280;51107;47.652;19.016;2023-11-21T02:30:30;99341.22;;;7.14;96.10
64683;BME280;51107;47.652;19.016;2023-11-21T02:33:02;99338.66;;;7.04;96.66
64683;BME280;51107;47.652;19.016;2023-11-21T02:35:31;99341.78;;;6.98;97.20
64683;BME280;51107;47.652;19.016;2023-11-21T02:38:00;99354.47;;;6.91;98.02
64683;BME280;51107;47.652;19.016;2023-11-21T02:40:29;99348.50;;;6.81;99.13
64683;BME280;51107;47.652;19.016;2023-11-21T02:42:58;99348.06;;;6.76;99.39
64683;BME280;51107;47.652;19.016;2023-11-21T02:45:27;99353.09;;;6.68;100.00
64683;BME280;51107;47.652;19.016;2023-11-21T02:47:55;99351.59;;;6.55;100.00
64683;BME280;51107;47.652;19.016;2023-11-21T02:50:26;99352.66;;;6.33;100.00
64683;BME280;51107;47.652;19.016;2023-11-21T02:52:55;99348.28;;;6.24;100.00
64683;BME280;51107;47.652;19.016;2023-11-21T02:55:29;99349.38;;;6.21;100.00
64683;BME280;51107;47.652;19.016;2023-11-21T02:57:57;99354.41;;;6.13;100.00
64683;BME280;51107;47.652;19.016;2023-11-21T03:00:26;99339.28;;;6.18;100.00
64683;BME280;51107;47.652;19.016;2023-11-21T03:02:55;99341.19;;;6.16;100.00
64683;BME280;51107;47.652;19.016;2023-11-21T03:05:24;99345.53;;;6.16;100.00
64683;BME280;51107;47.652;19.016;2023-11-21T03:07:52;99348.53;;;6.11;100.00
64683;BME280;51107;47.652;19.016;2023-11-21T03:10:21;99349.75;;;6.07;100.00
64683;BME280;51107;47.652;19.016;2023-11-21T03:12:49;99341.19;;;6.06;100.00
64683;BME280;51107;47.652;19.016;2023-11-21T03:15:18;99343.34;;;6.01;100.00
64683;BME280;51107;47.652;19.016;2023-11-21T03:17:46;99334.62;;;6.02;100.00
64683;BME280;51107;47.652;19.016;2023-11-21T03:20:17;99330.41;;;6.01;100.00
64683;BME280;51107;47.652;19.016;2023-11-21T03:22:45;99326.19;;;6.00;100.00
64683;BME280;51107;47.652;19.016;2023-11-21T03:25:15;99321.94;;;5.99;100.00
64683;BME280;51107;47.652;19.016;2023-11-21T03:27:45;99315.03;;;6.00;100.00
64683;BME280;51107;47.652;19.016;2023-11-21T03:30:13;99314.44;;;5.96;100.00
64683;BME280;51107;47.652;19.016;2023-11-21T03:32:42;99312.59;;;5.98;100.00
64683;BME280;51107;47.652;19.016;2023-11-21T03:35:10;99313.41;;;6.08;100.00
64683;BME280;51107;47.652;19.016;2023-11-21T03:37:39;99309.03;;;5.99;100.00
64683;BME280;51107;47.652;19.016;2023-11-21T03:40:10;99311.84;;;5.96;100.00
64683;BME280;51107;47.652;19.016;2023-11-21T03:42:40;99307.41;;;5.98;100.00
64683;BME280;51107;47.652;19.016;2023-11-21T03:45:09;99299.37;;;6.01;100.00
64683;BME280;51107;47.652;19.016;2023-11-21T03:47:41;99302.63;;;6.03;100.00
64683;BME280;51107;47.652;19.016;2023-11-21T03:50:10;99299.81;;;6.06;100.00
64683;BME280;51107;47.652;19.016;2023-11-21T03:52:38;99287.56;;;6.08;100.00
64683;BME280;51107;47.652;19.016;2023-11-21T03:55:07;99281.16;;;6.12;100.00
64683;BME280;51107;47.652;19.016;2023-11-21T03:57:35;99284.44;;;6.24;100.00
64683;BME280;51107;47.652;19.016;2023-11-21T04:00:05;99282.94;;;6.22;100.00
64683;BME280;51107;47.652;19.016;2023-11-21T04:02:38;99281.31;;;6.21;100.00
64683;BME280;51107;47.652;19.016;2023-11-21T04:05:08;99269.31;;;6.20;100.00
64683;BME280;51107;47.652;19.016;2023-11-21T04:07:37;99282.81;;;6.23;100.00
64683;BME280;51107;47.652;19.016;2023-11-21T04:10:07;99281.28;;;6.01;100.00
64683;BME280;51107;47.652;19.016;2023-11-21T04:12:41;99290.50;;;5.94;100.00
64683;BME280;51107;47.652;19.016;2023-11-21T04:15:10;99289.31;;;5.98;100.00
64683;BME280;51107;47.652;19.016;2023-11-21T04:17:38;99305.56;;;5.89;100.00
64683;BME280;51107;47.652;19.016;2023-11-21T04:20:08;99308.09;;;5.69;100.00
64683;BME280;51107;47.652;19.016;2023-11-21T04:22:40;99312.34;;;5.70;100.00
64683;BME280;51107;47.652;19.016;2023-11-21T04:25:14;99326.28;;;5.58;100.00
64683;BME280;51107;47.652;19.016;2023-11-21T04:27:44;99319.97;;;5.51;100.00
64683;BME280;51107;47.652;19.016;2023-11-21T04:30:13;99334.81;;;5.49;100.00
64683;BME280;51107;47.652;19.016;2023-11-21T04:32:41;99332.13;;;5.60;100.00
64683;BME280;51107;47.652;19.016;2023-11-21T04:35:10;99335.75;;;5.78;100.00
64683;BME280;51107;47.652;19.016;2023-11-21T04:37:38;99345.69;;;5.83;100.00
64683;BME280;51107;47.652;19.016;2023-11-21T04:40:07;99341.03;;;5.98;100.00
64683;BME280;51107;47.652;19.016;2023-11-21T04:42:35;99350.56;;;6.07;100.00
64683;BME280;51107;47.652;19.016;2023-11-21T04:45:05;99349.38;;;6.21;100.00
64683;BME280;51107;47.652;19.016;2023-11-21T04:47:37;99340.13;;;6.28;100.00
64683;BME280;51107;47.652;19.016;2023-11-21T04:50:06;99343.03;;;6.45;100.00
64683;BME280;51107;47.652;19.016;2023-11-21T04:52:34;99331.97;;;6.43;100.00
64683;BME280;51107;47.652;19.016;2023-11-21T04:55:02;99330.06;;;6.35;100.00
64683;BME280;51107;47.652;19.016;2023-11-21T04:57:31;99346.66;;;6.13;100.00
64683;BME280;51107;47.652;19.016;2023-11-21T04:59:59;99336.00;;;6.06;100.00
64683;BME280;51107;47.652;19.016;2023-11-21T05:02:27;99336.81;;;6.07;100.00
64683;BME280;51107;47.652;19.016;2023-11-21T05:05:02;99337.91;;;6.14;100.00
64683;BME280;51107;47.652;19.016;2023-11-21T05:07:34;99341.47;;;6.13;100.00
64683;BME280;51107;47.652;19.016;2023-11-21T05:10:07;99347.28;;;6.05;100.00
64683;BME280;51107;47.652;19.016;2023-11-21T05:12:39;99356.13;;;6.03;100.00
64683;BME280;51107;47.652;19.016;2023-11-21T05:15:08;99354.44;;;5.92;100.00
64683;BME280;51107;47.652;19.016;2023-11-21T05:17:41;99350.56;;;6.07;100.00
64683;BME280;51107;47.652;19.016;2023-11-21T05:20:14;99354.91;;;6.07;100.00
64683;BME280;51107;47.652;19.016;2023-11-21T05:22:49;99362.41;;;6.10;100.00
64683;BME280;51107;47.652;19.016;2023-11-21T05:25:18;99360.66;;;6.10;100.00
64683;BME280;51107;47.652;19.016;2023-11-21T05:27:47;99347.44;;;6.14;100.00
64683;BME280;51107;47.652;19.016;2023-11-21T05:30:15;99359.69;;;6.11;100.00
64683;BME280;51107;47.652;19.016;2023-11-21T05:32:44;99359.69;;;6.11;100.00
64683;BME280;51107;47.652;19.016;2023-11-21T05:35:12;99342.78;;;6.07;100.00
64683;BME280;51107;47.652;19.016;2023-11-21T05:37:46;99341.06;;;6.18;100.00
64683;BME280;51107;47.652;19.016;2023-11-21T05:40:15;99338.47;;;6.08;100.00
64683;BME280;51107;47.652;19.016;2023-11-21T05:42:44;99346.19;;;5.98;100.00
64683;BME280;51107;47.652;19.016;2023-11-21T05:45:13;99333.13;;;6.00;100.00
64683;BME280;51107;47.652;19.016;2023-11-21T05:47:43;99347.28;;;6.05;100.00
64683;BME280;51107;47.652;19.016;2023-11-21T05:50:15;99357.00;;;6.13;100.00
64683;BME280;51107;47.652;19.016;2023-11-21T05:52:45;99344.47;;;6.18;100.00
64683;BME280;51107;47.652;19.016;2023-11-21T05:55:14;99350.19;;;6.22;100.00
64683;BME280;51107;47.652;19.016;2023-11-21T05:57:43;99351.16;;;6.31;100.00
64683;BME280;51107;47.652;19.016;2023-11-21T06:00:14;99349.56;;;6.39;100.00
64683;BME280;51107;47.652;19.016;2023-11-21T06:02:50;99354.59;;;6.41;100.00
64683;BME280;51107;47.652;19.016;2023-11-21T06:05:25;99365.75;;;6.41;100.00
64683;BME280;51107;47.652;19.016;2023-11-21T06:07:55;99386.22;;;6.54;100.00
64683;BME280;51107;47.652;19.016;2023-11-21T06:10:27;99399.03;;;6.66;100.00
64683;BME280;51107;47.652;19.016;2023-11-21T06:12:57;99396.16;;;6.69;100.00
64683;BME280;51107;47.652;19.016;2023-11-21T06:15:30;99388.69;;;6.66;100.00
64683;BME280;51107;47.652;19.016;2023-11-21T06:17:59;99398.34;;;6.63;100.00
64683;BME280;51107;47.652;19.016;2023-11-21T06:20:27;99401.75;;;6.64;100.00
64683;BME280;51107;47.652;19.016;2023-11-21T06:22:55;99395.47;;;6.67;100.00
64683;BME280;51107;47.652;19.016;2023-11-21T06:25:24;99413.47;;;6.68;100.00
64683;BME280;51107;47.652;19.016;2023-11-21T06:27:52;99401.63;;;6.75;100.00
64683;BME280;51107;47.652;19.016;2023-11-21T06:30:21;99407.63;;;6.76;100.00
64683;BME280;51107;47.652;19.016;2023-11-21T06:32:51;99431.75;;;6.76;100.00
64683;BME280;51107;47.652;19.016;2023-11-21T06:35:20;99429.81;;;6.78;100.00
64683;BME280;51107;47.652;19.016;2023-11-21T06:37:49;99443.72;;;6.77;100.00
64683;BME280;51107;47.652;19.016;2023-11-21T06:40:19;99441.28;;;6.86;100.00
64683;BME280;51107;47.652;19.016;2023-11-21T06:42:48;99435.84;;;6.89;100.00
64683;BME280;51107;47.652;19.016;2023-11-21T06:45:17;99435.56;;;6.92;100.00
64683;BME280;51107;47.652;19.016;2023-11-21T06:47:46;99428.75;;;6.91;100.00
64683;BME280;51107;47.652;19.016;2023-11-21T06:50:14;99440.06;;;6.90;100.00
64683;BME280;51107;47.652;19.016;2023-11-21T06:52:42;99451.91;;;6.92;100.00
64683;BME280;51107;47.652;19.016;2023-11-21T06:55:11;99460.09;;;6.97;100.00
64683;BME280;51107;47.652;19.016;2023-11-21T06:57:39;99451.69;;;7.05;100.00
64683;BME280;51107;47.652;19.016;2023-11-21T07:00:08;99451.69;;;7.15;98.17
64683;BME280;51107;47.652;19.016;2023-11-21T07:02:37;99457.09;;;7.12;98.68
64683;BME280;51107;47.652;19.016;2023-11-21T07:05:07;99459.44;;;7.15;98.56
64683;BME280;51107;47.652;19.016;2023-11-21T07:07:35;99463.53;;;7.18;98.19
64683;BME280;51107;47.652;19.016;2023-11-21T07:10:05;99460.66;;;7.21;97.72
64683;BME280;51107;47.652;19.016;2023-11-21T07:12:34;99465.16;;;7.09;99.24
64683;BME280;51107;47.652;19.016;2023-11-21T07:15:03;99460.94;;;7.18;98.71
64683;BME280;51107;47.652;19.016;2023-11-21T07:17:34;99463.94;;;7.03;100.00
64683;BME280;51107;47.652;19.016;2023-11-21T07:20:06;99459.44;;;7.05;100.00
64683;BME280;51107;47.652;19.016;2023-11-21T07:22:35;99461.47;;;7.11;99.75
64683;BME280;51107;47.652;19.016;2023-11-21T07:25:03;99462.41;;;7.10;99.92
64683;BME280;51107;47.652;19.016;2023-11-21T07:27:32;99468.31;;;7.12;99.92
64683;BME280;51107;47.652;19.016;2023-11-21T07:30:02;99464.34;;;7.18;99.48
64683;BME280;51107;47.652;19.016;2023-11-21T07:32:35;99473.34;;;7.14;99.41
64683;BME280;51107;47.652;19.016;2023-11-21T07:35:04;99468.16;;;7.24;98.93
64683;BME280;51107;47.652;19.016;2023-11-21T07:37:32;99476.22;;;7.21;98.17
64683;BME280;51107;47.652;19.016;2023-11-21T07:40:00;99472.41;;;7.25;97.90
64683;BME280;51107;47.652;19.016;2023-11-21T07:42:29;99478.53;;;7.14;99.99
64683;BME280;51107;47.652;19.016;2023-11-21T07:44:57;99481.13;;;7.14;100.00
64683;BME280;51107;47.652;19.016;2023-11-21T07:47:25;99477.31;;;7.18;100.00
64683;BME280;51107;47.652;19.016;2023-11-21T07:49:55;99476.75;;;7.14;100.00
64683;BME280;51107;47.652;19.016;2023-11-21T07:52:26;99481.13;;;7.14;100.00
64683;BME280;51107;47.652;19.016;2023-11-21T07:54:54;99477.44;;;7.17;100.00
64683;BME280;51107;47.652;19.016;2023-11-21T07:57:22;99480.16;;;7.25;99.84
64683;BME280;51107;47.652;19.016;2023-11-21T07:59:50;99478.81;;;7.30;99.65
64683;BME280;51107;47.652;19.016;2023-11-21T08:02:21;99471.28;;;7.47;97.08
64683;BME280;51107;47.652;19.016;2023-11-21T08:04:51;99470.88;;;7.42;97.57
64683;BME280;51107;47.652;19.016;2023-11-21T08:07:19;99461.88;;;7.56;96.69
64683;BME280;51107;47.652;19.016;2023-11-21T08:09:47;99457.38;;;7.48;97.73
64683;BME280;51107;47.652;19.016;2023-11-21T08:12:18;99444.81;;;7.43;98.68
64683;BME280;51107;47.652;19.016;2023-11-21T08:14:47;99447.53;;;7.52;97.24
64683;BME280;51107;47.652;19.016;2023-11-21T08:17:15;99453.94;;;7.57;97.18
64683;BME280;51107;47.652;19.016;2023-11-21T08:19:46;99455.31;;;7.61;97.18
64683;BME280;51107;47.652;19.016;2023-11-21T08:22:17;99458.16;;;7.68;97.18
64683;BME280;51107;47.652;19.016;2023-11-21T08:24:48;99459.37;;;7.64;97.41
64683;BME280;51107;47.652;19.016;2023-11-21T08:27:17;99453.53;;;7.62;97.77
64683;BME280;51107;47.652;19.016;2023-11-21T08:29:45;99450.94;;;7.72;97.40
64683;BME280;51107;47.652;19.016;2023-11-21T08:32:14;99452.69;;;7.71;97.20
64683;BME280;51107;47.652;19.016;2023-11-21T08:34:42;99455.84;;;7.65;97.19
64683;BME280;51107;47.652;19.016;2023-11-21T08:37:14;99452.69;;;7.71;97.60
64683;BME280;51107;47.652;19.016;2023-11-21T08:39:44;99456.50;;;7.67;100.00
64683;BME280;51107;47.652;19.016;2023-11-21T08:42:12;99463.78;;;7.63;100.00
64683;BME280;51107;47.652;19.016;2023-11-21T08:44:40;99454.34;;;7.62;100.00
64683;BME280;51107;47.652;19.016;2023-11-21T08:47:09;99455.03;;;7.64;100.00
64683;BME280;51107;47.652;19.016;2023-11-21T08:49:37;99463.62;;;7.65;100.00
64683;BME280;51107;47.652;19.016;2023-11-21T08:52:06;99456.81;;;7.64;100.00
64683;BME280;51107;47.652;19.016;2023-11-21T08:54:34;99457.50;;;7.66;100.00
64683;BME280;51107;47.652;19.016;2023-11-21T08:57:03;99457.50;;;7.66;100.00
64683;BME280;51107;47.652;19.016;2023-11-21T08:59:31;99462.53;;;7.68;100.00
64683;BME280;51107;47.652;19.016;2023-11-21T09:01:59;99466.87;;;7.67;100.00
64683;BME280;51107;47.652;19.016;2023-11-21T09:04:27;99464.41;;;7.75;100.00
64683;BME280;51107;47.652;19.016;2023-11-21T09:06:55;99458.97;;;7.78;100.00
64683;BME280;51107;47.652;19.016;2023-11-21T09:09:24;99447.50;;;7.81;100.00
64683;BME280;51107;47.652;19.016;2023-11-21T09:11:52;99454.41;;;7.90;99.00
64683;BME280;51107;47.652;19.016;2023-11-21T09:14:20;99452.87;;;7.97;98.95
64683;BME280;51107;47.652;19.016;2023-11-21T09:16:49;99443.88;;;8.02;98.31
64683;BME280;51107;47.652;19.016;2023-11-21T09:19:18;99442.50;;;7.97;97.99
64683;BME280;51107;47.652;19.016;2023-11-21T09:21:47;99446.19;;;8.05;99.11
64683;BME280;51107;47.652;19.016;2023-11-21T09:24:15;99439.47;;;8.12;97.87
64683;BME280;51107;47.652;19.016;2023-11-21T09:26:43;99433.69;;;8.18;97.11
64683;BME280;51107;47.652;19.016;2023-11-21T09:29:13;99438.88;;;8.18;96.93
64683;BME280;51107;47.652;19.016;2023-11-21T09:31:41;99443.91;;;8.29;95.99
64683;BME280;51107;47.652;19.016;2023-11-21T09:34:11;99440.78;;;8.26;95.99
64683;BME280;51107;47.652;19.016;2023-11-21T09:36:40;99445.31;;;8.24;97.14
64683;BME280;51107;47.652;19.016;2023-11-21T09:39:09;99442.81;;;8.22;99.54
64683;BME280;51107;47.652;19.016;2023-11-21T09:41:46;99442.03;;;8.22;99.00
64683;BME280;51107;47.652;19.016;2023-11-21T09:44:24;99439.09;;;8.34;97.45
64683;BME280;51107;47.652;19.016;2023-11-21T09:46:59;99429.16;;;8.30;98.11
64683;BME280;51107;47.652;19.016;2023-11-21T09:49:28;99418.91;;;8.28;96.81
64683;BME280;51107;47.652;19.016;2023-11-21T09:51:58;99429.44;;;8.27;98.12
64683;BME280;51107;47.652;19.016;2023-11-21T09:54:27;99418.75;;;8.30;97.34
64683;BME280;51107;47.652;19.016;2023-11-21T09:56:59;99422.31;;;8.29;97.65
64683;BME280;51107;47.652;19.016;2023-11-21T09:59:30;99420.25;;;8.32;97.77
64683;BME280;51107;47.652;19.016;2023-11-21T10:02:02;99416.16;;;8.30;97.59
64683;BME280;51107;47.652;19.016;2023-11-21T10:04:31;99415.22;;;8.31;98.85
64683;BME280;51107;47.652;19.016;2023-11-21T10:06:59;99423.66;;;8.33;96.59
64683;BME280;51107;47.652;19.016;2023-11-21T10:09:28;99408.78;;;8.35;95.64
64683;BME280;51107;47.652;19.016;2023-11-21T10:11:57;99409.28;;;8.39;99.01
64683;BME280;51107;47.652;19.016;2023-11-21T10:14:27;99414.06;;;8.43;99.93
64683;BME280;51107;47.652;19.016;2023-11-21T10:16:57;99408.91;;;8.33;100.00
64683;BME280;51107;47.652;19.016;2023-11-21T10:19:26;99404.44;;;8.26;100.00
64683;BME280;51107;47.652;19.016;2023-11-21T10:21:55;99393.09;;;8.27;100.00
64683;BME280;51107;47.652;19.016;2023-11-21T10:24:25;99409.09;;;8.22;100.00
64683;BME280;51107;47.652;19.016;2023-11-21T10:26:56;99396.41;;;8.19;100.00
64683;BME280;51107;47.652;19.016;2023-11-21T10:29:24;99401.75;;;8.18;100.00
64683;BME280;51107;47.652;19.016;2023-11-21T10:31:55;99402.44;;;8.20;100.00
64683;BME280;51107;47.652;19.016;2023-11-21T10:34:25;99398.75;;;8.12;100.00
64683;BME280;51107;47.652;19.016;2023-11-21T10:36:56;99397.41;;;8.08;100.00
64683;BME280;51107;47.652;19.016;2023-11-21T10:39:26;99392.09;;;8.10;100.00
64683;BME280;51107;47.652;19.016;2023-11-21T10:41:59;99400.41;;;8.13;100.00
64683;BME280;51107;47.652;19.016;2023-11-21T10:44:27;99396.84;;;8.14;100.00
64683;BME280;51107;47.652;19.016;2023-11-21T10:46:55;99396.84;;;8.14;100.00
64683;BME280;51107;47.652;19.016;2023-11-21T10:49:25;99398.75;;;8.12;100.00
64683;BME280;51107;47.652;19.016;2023-11-21T10:51:54;99391.22;;;8.19;100.00
64683;BME280;51107;47.652;19.016;2023-11-21T10:54:25;99389.72;;;8.16;100.00
64683;BME280;51107;47.652;19.016;2023-11-21T10:56:57;99392.72;;;8.22;100.00
64683;BME280;51107;47.652;19.016;2023-11-21T10:59:29;99393.53;;;8.22;100.00
64683;BME280;51107;47.652;19.016;2023-11-21T11:02:01;99383.37;;;8.29;100.00
64683;BME280;51107;47.652;19.016;2023-11-21T11:04:33;99387.47;;;8.31;100.00
64683;BME280;51107;47.652;19.016;2023-11-21T11:07:08;99373.41;;;8.34;100.00
64683;BME280;51107;47.652;19.016;2023-11-21T11:09:40;99371.34;;;8.38;100.00
64683;BME280;51107;47.652;19.016;2023-11-21T11:12:08;99371.34;;;8.38;100.00
64683;BME280;51107;47.652;19.016;2023-11-21T11:14:40;99372.69;;;8.42;100.00
64683;BME280;51107;47.652;19.016;2023-11-21T11:17:09;99367.59;;;8.50;100.00
64683;BME280;51107;47.652;19.016;2023-11-21T11:19:38;99367.84;;;8.57;100.00
64683;BME280;51107;47.652;19.016;2023-11-21T11:22:24;99378.25;;;8.65;100.00
64683;BME280;51107;47.652;19.016;2023-11-21T11:25:19;99370.56;;;8.73;100.00
64683;BME280;51107;47.652;19.016;2023-11-21T11:28:26;99372.19;;;8.74;100.00
64683;BME280;51107;47.652;19.016;2023-11-21T11:31:38;99374.13;;;8.72;100.00
64683;BME280;51107;47.652;19.016;2023-11-21T11:36:52;99362.75;;;8.73;100.00
64683;BME280;51107;47.652;19.016;2023-11-21T11:39:38;99364.72;;;8.71;100.00
64683;BME280;51107;47.652;19.016;2023-11-21T11:42:13;99373.31;;;8.72;100.00
64683;BME280;51107;47.652;19.016;2023-11-21T11:47:29;99363.59;;;8.74;100.00
64683;BME280;51107;47.652;19.016;2023-11-21T11:50:12;99354.69;;;8.76;100.00
64683;BME280;51107;47.652;19.016;2023-11-21T11:52:51;99353.78;;;8.86;100.00
64683;BME280;51107;47.652;19.016;2023-11-21T11:55:22;99354.47;;;8.88;100.00
64683;BME280;51107;47.652;19.016;2023-11-21T11:57:54;99350.91;;;8.89;100.00
64683;BME280;51107;47.652;19.016;2023-11-21T12:02:56;99352.81;;;8.87;100.00
64683;BME280;51107;47.652;19.016;2023-11-21T12:05:26;99357.22;;;8.86;100.00
64683;BME280;51107;47.652;19.016;2023-11-21T12:08:05;99353.28;;;8.82;100.00
64683;BME280;51107;47.652;19.016;2023-11-21T12:10:36;99347.25;;;8.81;100.00
64683;BME280;51107;47.652;19.016;2023-11-21T12:13:09;99352.59;;;8.80;100.00
64683;BME280;51107;47.652;19.016;2023-11-21T12:15:40;99350.84;;;8.80;100.00
64683;BME280;51107;47.652;19.016;2023-11-21T12:18:10;99351.63;;;8.81;100.00
64683;BME280;51107;47.652;19.016;2023-11-21T12:20:38;99357.94;;;8.78;100.00
64683;BME280;51107;47.652;19.016;2023-11-21T12:23:09;99351.41;;;8.74;100.00
64683;BME280;51107;47.652;19.016;2023-11-21T12:25:38;99352.25;;;8.75;100.00
64683;BME280;51107;47.652;19.016;2023-11-21T12:28:10;99346.22;;;8.74;100.00
64683;BME280;51107;47.652;19.016;2023-11-21T12:30:40;99345.56;;;8.72;100.00
64683;BME280;51107;47.652;19.016;2023-11-21T12:33:09;99346.69;;;8.70;100.00
64683;BME280;51107;47.652;19.016;2023-11-21T12:35:38;99340.53;;;8.71;100.00
64683;BME280;51107;47.652;19.016;2023-11-21T12:38:07;99341.19;;;8.73;100.00
64683;BME280;51107;47.652;19.016;2023-11-21T12:40:37;99343.63;;;8.74;100.00
64683;BME280;51107;47.652;19.016;2023-11-21T12:43:07;99341.03;;;8.74;100.00
64683;BME280;51107;47.652;19.016;2023-11-21T12:45:36;99338.44;;;8.74;100.00
64683;BME280;51107;47.652;19.016;2023-11-21T12:48:06;99330.78;;;8.73;100.00
64683;BME280;51107;47.652;19.016;2023-11-21T12:50:39;99331.31;;;8.76;100.00
64683;BME280;51107;47.652;19.016;2023-11-21T12:53:11;99339.91;;;8.77;100.00
64683;BME280;51107;47.652;19.016;2023-11-21T12:55:41;99348.50;;;8.77;100.00
64683;BME280;51107;47.652;19.016;2023-11-21T12:58:11;99336.94;;;8.72;100.00
64683;BME280;51107;47.652;19.016;2023-11-21T13:00:46;99340.81;;;8.67;100.00
64683;BME280;51107;47.652;19.016;2023-11-21T13:03:16;99336.44;;;8.68;100.00
64683;BME280;51107;47.652;19.016;2023-11-21T13:05:48;99340.53;;;8.71;100.00
64683;BME280;51107;47.652;19.016;2023-11-21T13:08:25;99343.31;;;8.59;100.00
64683;BME280;51107;47.652;19.016;2023-11-21T13:10:55;99346.22;;;8.56;100.00
64683;BME280;51107;47.652;19.016;2023-11-21T13:13:25;99347.94;;;8.65;100.00
64683;BME280;51107;47.652;19.016;2023-11-21T13:15:59;99345.34;;;8.65;100.00